• Join FlightAware (Why Join?)
  • Login
  • US Flag 
07:48AM EDT


 

Airport Tracker/Info


-or-


 

Live Flight TrackerFlight Track Log ✈ KLM1072 ✈ 21-Apr-2013 ✈ EGCC / MAN - EHAM / AMS

Flight Track Log - Related Links

Times and Time Zones

All times are in EDT time to prevent confusion due to time zone crossing. See the KLM1072 flight status page for this flight to view local times or setup timezone preferences in your user account.

Time Position Orientation Groundspeed Altitude Reporting Facility
EDT Latitude Longitude Course Direction KTS MPH feet Rate Location/Type
01:07AM 53.2500 -1.4090 101° East  Level Estimated
01:08AM 53.2393 -1.3226 102° East  Level Estimated
01:09AM 53.2285 -1.2363 102° East  Level Estimated
01:10AM 53.2177 -1.1500 102° East  Level Estimated
01:11AM 53.2068 -1.0638 102° East  Level Estimated
01:12AM 53.1958 -0.9776 102° East  Level Estimated
01:13AM 53.1848 -0.8914 102° East  Level Estimated
01:14AM 53.1737 -0.8053 102° East  Level Estimated
01:15AM 53.1626 -0.7193 102° East  Level Estimated
01:16AM 53.1513 -0.6333 102° East  Level Estimated
01:17AM 53.1401 -0.5473 102° East  Level Estimated
01:18AM 53.1287 -0.4614 102° East  Level Estimated
01:19AM 53.1173 -0.3755 102° East  Level Estimated
01:20AM 53.1059 -0.2897 103° East  Level Estimated
01:21AM 53.0944 -0.2039 103° East  Level Estimated
01:22AM 53.0828 -0.1182 103° East  Level Estimated
01:23AM 53.0711 -0.0325 103° East  Level Estimated
01:24AM 53.0594 0.0532 103° East  Level Estimated
01:25AM 53.0476 0.1388 103° East  Level Estimated
01:26AM 53.0358 0.2243 103° East  Level Estimated
01:27AM 53.0239 0.3098 103° East  Level Estimated
01:28AM 53.0120 0.3953 103° East  Level Estimated
01:29AM 53.0000 0.4807 103° East  Level Estimated
01:30AM 52.9879 0.5661 103° East  Level Estimated
01:31AM 52.9702 0.6903 103° East  Level Estimated
01:32AM 52.9524 0.8144 103° East  Level Estimated
01:33AM 52.9344 0.9384 103° East  Level Estimated
01:34AM 52.9164 1.0623 104° East  Level Estimated
01:35AM 52.8982 1.1861 104° East  Level Estimated
01:36AM 52.8798 1.3098 104° East  Level Estimated
01:37AM 52.8614 1.4334 104° East  Level Estimated
01:38AM 52.8428 1.5569 104° East  Level Estimated
01:39AM 52.8240 1.6803 104° East  Level Estimated
01:40AM 52.8052 1.8035 104° East  Level Estimated
01:41AM 52.7862 1.9267 104° East  Level Estimated
01:42AM 52.7671 2.0498 104° East  Level Estimated
01:43AM 52.7479 2.1727 104° East  Level Estimated
01:44AM 52.7285 2.2956 105° East  Level Estimated
01:45AM 52.7090 2.4183 105° East  Level Estimated
01:46AM 52.6894 2.5409 105° East  Level Estimated
01:47AM 52.6697 2.6634 105° East  Level Estimated
01:48AM 52.6498 2.7858 105° East  Level Estimated
01:49AM 52.6298 2.9081 105° East  Level Estimated
01:50AM 52.6097 3.0303 105° East  Level Estimated
01:51AM 52.5895 3.1524 105° East  Level Estimated
01:52AM 52.5691 3.2743 105° East  Level Estimated
01:53AM 52.5486 3.3962 105° East  Level Estimated
01:54AM 52.5280 3.5179 106° East  Level Estimated
01:55AM 52.5073 3.6395 106° East  Level Estimated
01:56AM 52.4864 3.7610 106° East  Level Estimated
01:57AM 52.4654 3.8824 106° East  Level Estimated
01:58AM 52.4443 4.0036 106° East  Level Estimated
01:59AM 52.4230 4.1248 106° East  Level Estimated
02:00AM 52.4017 4.2458 106° East  Level Estimated
02:01AM 52.3802 4.3667 106° East  Level Estimated
02:02AM 52.3586 4.4875 106° East  Level Estimated
02:03AM 52.3369 4.6082 106° East  Level Estimated
02:04AM 52.3158 4.7247 106° East  Level Estimated
02:05AM 52.3086 4.7639 107° East  Level Estimated
02:06AM 52.3086 4.7639 348° North  Level Estimated
02:07AM 52.3086 4.7639 348° North  Level Estimated
02:08AM 52.3086 4.7639 348° North  Level Estimated
02:09AM 52.3086 4.7639 348° North  Level Estimated
02:10AM 52.3086 4.7639 348° North  Level Estimated
02:11AM 52.3086 4.7639 348° North  Level Estimated
02:12AM 52.3086 4.7639 348° North  Level Estimated